DAL2512 KATL-KRIC
Flight info
| Callsign | DAL2512 |
|---|---|
| Flight time | 1h 6m |
| Altitude | 35000 |
| Route | JACCC2 KELLN BYJAC Q60 JAXSN KELCE DUCXS5 |
| Aircraft | B738/M-SDE2E3FGHIRWXY/LB1 |
Departure
| Time | 2026-05-08 01:46 |
|---|---|
| Airport | Hartsfield Jackson Atlanta International Airport (KATL) |
Arrival
| Time | 2026-05-08 02:52 |
|---|---|
| Airport | Richmond International Airport (KRIC) |
| Time | Latitude | Longitude | Altitude | Speed | Heading |
|---|---|---|---|---|---|
| 2026-05-08 01:03 | 33.63905 | -84.43322 | 1011 ft | 0 kts | 92° |
| 2026-05-08 01:32 | 33.63905 | -84.43337 | 1011 ft | 2 kts | 89° |
| 2026-05-08 01:33 | 33.63905 | -84.43356 | 1012 ft | 2 kts | 94° |
| 2026-05-08 01:33 | 33.63907 | -84.43375 | 1012 ft | 2 kts | 120° |
| 2026-05-08 01:33 | 33.63918 | -84.43388 | 1012 ft | 2 kts | 155° |
| 2026-05-08 01:33 | 33.63928 | -84.43391 | 1012 ft | 0 kts | 178° |
| 2026-05-08 01:34 | 33.63935 | -84.43391 | 1012 ft | 0 kts | 181° |
| 2026-05-08 01:36 | 33.63926 | -84.43391 | 1012 ft | 0 kts | 181° |
| 2026-05-08 01:37 | 33.63923 | -84.43391 | 1012 ft | 0 kts | 181° |
| 2026-05-08 01:37 | 33.63911 | -84.43391 | 1012 ft | 3 kts | 181° |
| 2026-05-08 01:37 | 33.63886 | -84.43391 | 1012 ft | 3 kts | 181° |
| 2026-05-08 01:37 | 33.63868 | -84.43391 | 1012 ft | 2 kts | 181° |
| 2026-05-08 01:38 | 33.63860 | -84.43391 | 1012 ft | 0 kts | 180° |
| 2026-05-08 01:39 | 33.63855 | -84.43391 | 1012 ft | 4 kts | 181° |
| 2026-05-08 01:39 | 33.63788 | -84.43392 | 1012 ft | 8 kts | 180° |
| 2026-05-08 01:39 | 33.63726 | -84.43391 | 1012 ft | 8 kts | 175° |
| 2026-05-08 01:39 | 33.63674 | -84.43360 | 1011 ft | 8 kts | 125° |
| 2026-05-08 01:40 | 33.63665 | -84.43287 | 1010 ft | 9 kts | 87° |
| 2026-05-08 01:40 | 33.63665 | -84.43206 | 1009 ft | 9 kts | 91° |
| 2026-05-08 01:40 | 33.63664 | -84.43110 | 1008 ft | 14 kts | 91° |
| 2026-05-08 01:40 | 33.63664 | -84.42963 | 1006 ft | 17 kts | 90° |
| 2026-05-08 01:41 | 33.63665 | -84.42821 | 1004 ft | 16 kts | 91° |
| 2026-05-08 01:41 | 33.63656 | -84.42674 | 1001 ft | 17 kts | 91° |
| 2026-05-08 01:41 | 33.63656 | -84.42509 | 996 ft | 20 kts | 90° |
| 2026-05-08 01:41 | 33.63656 | -84.42326 | 991 ft | 22 kts | 90° |
| 2026-05-08 01:42 | 33.63656 | -84.42123 | 985 ft | 24 kts | 90° |
| 2026-05-08 01:42 | 33.63656 | -84.41895 | 976 ft | 26 kts | 90° |
| 2026-05-08 01:42 | 33.63655 | -84.41672 | 970 ft | 25 kts | 90° |
| 2026-05-08 01:42 | 33.63656 | -84.41456 | 965 ft | 24 kts | 90° |
| 2026-05-08 01:43 | 33.63657 | -84.41245 | 962 ft | 24 kts | 90° |
| 2026-05-08 01:43 | 33.63658 | -84.41065 | 958 ft | 20 kts | 91° |
| 2026-05-08 01:43 | 33.63651 | -84.40936 | 957 ft | 12 kts | 115° |
| 2026-05-08 01:43 | 33.63583 | -84.40907 | 956 ft | 4 kts | 180° |
| 2026-05-08 01:44 | 33.63579 | -84.40907 | 956 ft | 2 kts | 180° |
| 2026-05-08 01:44 | 33.63495 | -84.40919 | 956 ft | 16 kts | 212° |
| 2026-05-08 01:44 | 33.63472 | -84.41003 | 958 ft | 0 kts | 270° |
| 2026-05-08 01:45 | 33.63472 | -84.41022 | 958 ft | 14 kts | 270° |
| 2026-05-08 01:46 | 33.63472 | -84.41534 | 968 ft | 100 kts | 270° |
| 2026-05-08 01:46 | 33.63475 | -84.42697 | 1027 ft | 164 kts | 272° |
| 2026-05-08 01:46 | 33.63479 | -84.44169 | 1809 ft | 172 kts | 272° |
| 2026-05-08 01:46 | 33.63471 | -84.45721 | 2502 ft | 193 kts | 272° |
| 2026-05-08 01:47 | 33.63392 | -84.47433 | 3196 ft | 207 kts | 263° |
| 2026-05-08 01:47 | 33.62853 | -84.49113 | 3879 ft | 223 kts | 246° |
| 2026-05-08 01:47 | 33.62028 | -84.50856 | 4692 ft | 232 kts | 245° |
| 2026-05-08 01:48 | 33.60410 | -84.54585 | 6292 ft | 248 kts | 248° |
| 2026-05-08 01:48 | 33.59516 | -84.56429 | 7221 ft | 253 kts | 238° |
| 2026-05-08 01:48 | 33.58170 | -84.57825 | 8043 ft | 269 kts | 214° |
| 2026-05-08 01:48 | 33.56298 | -84.58462 | 8989 ft | 283 kts | 193° |
| 2026-05-08 01:49 | 33.54218 | -84.58491 | 9824 ft | 291 kts | 188° |
| 2026-05-08 01:49 | 33.52162 | -84.58424 | 10573 ft | 299 kts | 185° |
| 2026-05-08 01:49 | 33.50018 | -84.57918 | 11364 ft | 316 kts | 168° |
| 2026-05-08 01:49 | 33.47997 | -84.56456 | 12035 ft | 341 kts | 143° |
| 2026-05-08 01:50 | 33.46498 | -84.54148 | 12584 ft | 363 kts | 122° |
| 2026-05-08 01:50 | 33.45658 | -84.50941 | 12980 ft | 384 kts | 97° |
| 2026-05-08 01:50 | 33.45499 | -84.47619 | 13312 ft | 402 kts | 90° |
| 2026-05-08 01:50 | 33.45490 | -84.44228 | 13670 ft | 417 kts | 89° |
| 2026-05-08 01:51 | 33.45522 | -84.40642 | 14016 ft | 433 kts | 88° |
| 2026-05-08 01:51 | 33.45662 | -84.36962 | 14254 ft | 449 kts | 81° |
| 2026-05-08 01:51 | 33.46314 | -84.33200 | 14796 ft | 454 kts | 71° |
| 2026-05-08 01:51 | 33.47387 | -84.29540 | 15387 ft | 457 kts | 64° |
| 2026-05-08 01:52 | 33.48761 | -84.25941 | 16000 ft | 460 kts | 59° |
| 2026-05-08 01:52 | 33.50323 | -84.22370 | 16560 ft | 466 kts | 57° |
| 2026-05-08 01:52 | 33.51996 | -84.18769 | 17172 ft | 470 kts | 56° |
| 2026-05-08 01:52 | 33.53623 | -84.15322 | 17719 ft | 476 kts | 56° |
| 2026-05-08 01:53 | 33.55257 | -84.11839 | 18238 ft | 482 kts | 56° |
| 2026-05-08 01:53 | 33.56876 | -84.08334 | 18864 ft | 485 kts | 56° |
| 2026-05-08 01:53 | 33.58506 | -84.04754 | 19384 ft | 490 kts | 57° |
| 2026-05-08 01:53 | 33.60131 | -84.01139 | 19968 ft | 493 kts | 57° |
| 2026-05-08 01:54 | 33.61779 | -83.97450 | 20459 ft | 499 kts | 57° |
| 2026-05-08 01:54 | 33.63412 | -83.93770 | 21045 ft | 501 kts | 57° |
| 2026-05-08 01:54 | 33.65048 | -83.90081 | 21472 ft | 507 kts | 57° |
| 2026-05-08 01:54 | 33.66702 | -83.86335 | 22065 ft | 509 kts | 57° |
| 2026-05-08 01:55 | 33.68388 | -83.82516 | 22481 ft | 515 kts | 57° |
| 2026-05-08 01:55 | 33.70134 | -83.78560 | 22976 ft | 519 kts | 57° |
| 2026-05-08 01:55 | 33.71887 | -83.74589 | 23417 ft | 524 kts | 57° |
| 2026-05-08 01:55 | 33.73634 | -83.70622 | 23917 ft | 527 kts | 57° |
| 2026-05-08 01:56 | 33.75400 | -83.66613 | 24305 ft | 533 kts | 57° |
| 2026-05-08 01:56 | 33.77201 | -83.62596 | 24854 ft | 534 kts | 54° |
| 2026-05-08 01:56 | 33.79126 | -83.58678 | 25277 ft | 536 kts | 52° |
| 2026-05-08 01:56 | 33.81174 | -83.54819 | 25710 ft | 539 kts | 50° |
| 2026-05-08 01:57 | 33.83305 | -83.50954 | 26145 ft | 543 kts | 49° |
| 2026-05-08 01:57 | 33.85497 | -83.47035 | 26638 ft | 544 kts | 49° |
| 2026-05-08 01:57 | 33.87659 | -83.43156 | 27213 ft | 545 kts | 50° |
| 2026-05-08 01:57 | 33.89807 | -83.39254 | 27942 ft | 541 kts | 50° |
| 2026-05-08 01:58 | 33.91888 | -83.35433 | 28470 ft | 542 kts | 50° |
| 2026-05-08 01:58 | 33.93991 | -83.31538 | 28995 ft | 542 kts | 51° |
| 2026-05-08 01:58 | 33.96086 | -83.27627 | 29554 ft | 541 kts | 51° |
| 2026-05-08 01:58 | 33.98168 | -83.23717 | 30085 ft | 541 kts | 51° |
| 2026-05-08 01:59 | 34.00245 | -83.19804 | 30549 ft | 542 kts | 51° |
| 2026-05-08 01:59 | 34.02334 | -83.15861 | 30978 ft | 543 kts | 51° |
| 2026-05-08 01:59 | 34.04436 | -83.11886 | 31437 ft | 543 kts | 51° |
| 2026-05-08 01:59 | 34.06520 | -83.07942 | 31846 ft | 544 kts | 51° |
| 2026-05-08 02:00 | 34.08591 | -83.04020 | 32258 ft | 545 kts | 51° |
| 2026-05-08 02:00 | 34.10649 | -83.00115 | 32725 ft | 544 kts | 51° |
| 2026-05-08 02:00 | 34.12722 | -82.96176 | 33152 ft | 543 kts | 50° |
| 2026-05-08 02:00 | 34.14757 | -82.92303 | 33632 ft | 542 kts | 50° |
| 2026-05-08 02:01 | 34.16774 | -82.88446 | 34104 ft | 540 kts | 50° |
| 2026-05-08 02:01 | 34.18752 | -82.84654 | 34540 ft | 539 kts | 50° |
| 2026-05-08 02:01 | 34.20758 | -82.80803 | 34805 ft | 542 kts | 50° |
| 2026-05-08 02:01 | 34.22773 | -82.76936 | 34994 ft | 545 kts | 50° |
| 2026-05-08 02:02 | 34.26802 | -82.69195 | 34990 ft | 543 kts | 50° |
| 2026-05-08 02:02 | 34.30782 | -82.61510 | 34989 ft | 541 kts | 50° |
| 2026-05-08 02:03 | 34.34813 | -82.53720 | 34992 ft | 542 kts | 50° |
| 2026-05-08 02:03 | 34.38811 | -82.45983 | 34991 ft | 541 kts | 50° |
| 2026-05-08 02:04 | 34.42788 | -82.38264 | 34990 ft | 540 kts | 50° |
| 2026-05-08 02:04 | 34.46759 | -82.30411 | 34989 ft | 546 kts | 52° |
| 2026-05-08 02:05 | 34.50507 | -82.22212 | 34986 ft | 548 kts | 56° |
| 2026-05-08 02:05 | 34.54534 | -82.14333 | 34988 ft | 539 kts | 44° |
| 2026-05-08 02:06 | 34.59238 | -82.07348 | 34986 ft | 525 kts | 38° |
| 2026-05-08 02:06 | 34.64204 | -82.00758 | 34985 ft | 532 kts | 37° |
| 2026-05-08 02:07 | 34.69227 | -81.94130 | 34987 ft | 527 kts | 37° |
| 2026-05-08 02:07 | 34.74118 | -81.87526 | 34983 ft | 530 kts | 38° |
| 2026-05-08 02:08 | 34.79049 | -81.80763 | 34981 ft | 535 kts | 39° |
| 2026-05-08 02:08 | 34.84002 | -81.73906 | 34979 ft | 533 kts | 39° |
| 2026-05-08 02:09 | 34.88837 | -81.67153 | 34983 ft | 529 kts | 39° |
| 2026-05-08 02:09 | 34.93725 | -81.60342 | 34980 ft | 531 kts | 38° |
| 2026-05-08 02:10 | 34.98645 | -81.53487 | 34979 ft | 534 kts | 39° |
| 2026-05-08 02:10 | 35.03523 | -81.46660 | 34979 ft | 532 kts | 38° |
| 2026-05-08 02:11 | 35.08453 | -81.39758 | 34982 ft | 533 kts | 38° |
| 2026-05-08 02:11 | 35.13382 | -81.32845 | 34777 ft | 530 kts | 39° |
| 2026-05-08 02:12 | 35.15781 | -81.29453 | 34394 ft | 523 kts | 39° |
| 2026-05-08 02:12 | 35.18188 | -81.26053 | 33522 ft | 528 kts | 39° |
| 2026-05-08 02:12 | 35.20607 | -81.22655 | 32447 ft | 537 kts | 39° |
| 2026-05-08 02:12 | 35.23105 | -81.19157 | 31364 ft | 545 kts | 39° |
| 2026-05-08 02:13 | 35.25597 | -81.15665 | 30414 ft | 549 kts | 38° |
| 2026-05-08 02:13 | 35.28101 | -81.12136 | 29820 ft | 544 kts | 39° |
| 2026-05-08 02:13 | 35.30557 | -81.08652 | 29198 ft | 541 kts | 38° |
| 2026-05-08 02:13 | 35.32996 | -81.05176 | 28987 ft | 532 kts | 39° |
| 2026-05-08 02:14 | 35.37895 | -80.98224 | 28981 ft | 542 kts | 38° |
| 2026-05-08 02:14 | 35.42740 | -80.91318 | 28977 ft | 522 kts | 38° |
| 2026-05-08 02:15 | 35.47561 | -80.84473 | 28981 ft | 538 kts | 38° |
| 2026-05-08 02:15 | 35.50060 | -80.80951 | 28982 ft | 549 kts | 38° |
| 2026-05-08 02:15 | 35.52542 | -80.77439 | 28978 ft | 551 kts | 38° |
| 2026-05-08 02:16 | 35.57567 | -80.70264 | 28980 ft | 553 kts | 38° |
| 2026-05-08 02:16 | 35.62556 | -80.63097 | 28977 ft | 550 kts | 38° |
| 2026-05-08 02:17 | 35.67562 | -80.55900 | 28976 ft | 555 kts | 38° |
| 2026-05-08 02:17 | 35.72543 | -80.48720 | 28979 ft | 552 kts | 38° |
| 2026-05-08 02:18 | 35.77557 | -80.41486 | 28981 ft | 550 kts | 38° |
| 2026-05-08 02:18 | 35.82545 | -80.34283 | 28983 ft | 555 kts | 38° |
| 2026-05-08 02:19 | 35.87557 | -80.27036 | 28984 ft | 557 kts | 38° |
| 2026-05-08 02:19 | 35.92614 | -80.19721 | 28981 ft | 559 kts | 38° |
| 2026-05-08 02:20 | 35.97515 | -80.12199 | 28984 ft | 566 kts | 43° |
| 2026-05-08 02:20 | 36.02003 | -80.04007 | 28990 ft | 571 kts | 48° |
| 2026-05-08 02:21 | 36.06220 | -79.95686 | 28984 ft | 571 kts | 49° |
| 2026-05-08 02:21 | 36.10463 | -79.87279 | 28967 ft | 570 kts | 48° |
| 2026-05-08 02:22 | 36.14871 | -79.79170 | 28971 ft | 565 kts | 45° |
| 2026-05-08 02:22 | 36.19467 | -79.71158 | 28977 ft | 567 kts | 44° |
| 2026-05-08 02:23 | 36.24023 | -79.63259 | 28983 ft | 564 kts | 44° |
| 2026-05-08 02:23 | 36.28564 | -79.55337 | 28988 ft | 565 kts | 45° |
| 2026-05-08 02:24 | 36.33076 | -79.47388 | 28983 ft | 568 kts | 45° |
| 2026-05-08 02:24 | 36.37590 | -79.39364 | 28979 ft | 561 kts | 45° |
| 2026-05-08 02:25 | 36.42063 | -79.31383 | 28981 ft | 555 kts | 46° |
| 2026-05-08 02:25 | 36.44226 | -79.27483 | 28976 ft | 537 kts | 46° |
| 2026-05-08 02:25 | 36.46314 | -79.23699 | 28974 ft | 520 kts | 45° |
| 2026-05-08 02:26 | 36.50363 | -79.16411 | 28989 ft | 516 kts | 45° |
| 2026-05-08 02:26 | 36.54474 | -79.09090 | 28891 ft | 509 kts | 45° |
| 2026-05-08 02:27 | 36.56482 | -79.05486 | 28604 ft | 502 kts | 45° |
| 2026-05-08 02:27 | 36.58459 | -79.01932 | 28153 ft | 498 kts | 45° |
| 2026-05-08 02:27 | 36.60412 | -78.98415 | 27660 ft | 496 kts | 46° |
| 2026-05-08 02:27 | 36.62366 | -78.94885 | 27139 ft | 494 kts | 46° |
| 2026-05-08 02:28 | 36.64326 | -78.91325 | 26612 ft | 492 kts | 47° |
| 2026-05-08 02:28 | 36.66278 | -78.87773 | 26086 ft | 489 kts | 47° |
| 2026-05-08 02:28 | 36.68198 | -78.84267 | 25563 ft | 487 kts | 48° |
| 2026-05-08 02:28 | 36.70105 | -78.80782 | 25032 ft | 484 kts | 48° |
| 2026-05-08 02:29 | 36.71980 | -78.77352 | 24496 ft | 474 kts | 48° |
| 2026-05-08 02:29 | 36.73809 | -78.74003 | 24011 ft | 462 kts | 48° |
| 2026-05-08 02:29 | 36.75581 | -78.70757 | 23527 ft | 451 kts | 49° |
| 2026-05-08 02:29 | 36.77341 | -78.67538 | 23031 ft | 440 kts | 48° |
| 2026-05-08 02:30 | 36.79052 | -78.64411 | 22541 ft | 430 kts | 48° |
| 2026-05-08 02:30 | 36.80695 | -78.61413 | 22073 ft | 419 kts | 48° |
| 2026-05-08 02:30 | 36.82321 | -78.58443 | 21619 ft | 410 kts | 49° |
| 2026-05-08 02:30 | 36.83912 | -78.55536 | 21165 ft | 402 kts | 49° |
| 2026-05-08 02:31 | 36.85482 | -78.52667 | 20711 ft | 394 kts | 49° |
| 2026-05-08 02:31 | 36.87019 | -78.49865 | 20289 ft | 399 kts | 49° |
| 2026-05-08 02:31 | 36.88620 | -78.46964 | 19821 ft | 410 kts | 49° |
| 2026-05-08 02:31 | 36.90220 | -78.44048 | 19361 ft | 404 kts | 49° |
| 2026-05-08 02:32 | 36.91775 | -78.41189 | 18908 ft | 395 kts | 50° |
| 2026-05-08 02:32 | 36.93321 | -78.38337 | 18440 ft | 394 kts | 50° |
| 2026-05-08 02:32 | 36.94850 | -78.35522 | 17975 ft | 393 kts | 50° |
| 2026-05-08 02:32 | 36.96395 | -78.32671 | 17534 ft | 391 kts | 51° |
| 2026-05-08 02:33 | 36.97931 | -78.29837 | 17098 ft | 389 kts | 51° |
| 2026-05-08 02:33 | 36.99443 | -78.27045 | 16646 ft | 387 kts | 51° |
| 2026-05-08 02:33 | 37.00973 | -78.24216 | 16191 ft | 385 kts | 51° |
| 2026-05-08 02:33 | 37.02497 | -78.21399 | 15731 ft | 383 kts | 52° |
| 2026-05-08 02:34 | 37.04005 | -78.18613 | 15272 ft | 381 kts | 52° |
| 2026-05-08 02:34 | 37.05519 | -78.15812 | 14809 ft | 379 kts | 52° |
| 2026-05-08 02:34 | 37.07033 | -78.13010 | 14345 ft | 376 kts | 52° |
| 2026-05-08 02:34 | 37.08513 | -78.10267 | 13895 ft | 374 kts | 52° |
| 2026-05-08 02:35 | 37.09983 | -78.07539 | 13434 ft | 371 kts | 52° |
| 2026-05-08 02:35 | 37.11423 | -78.04862 | 12996 ft | 368 kts | 52° |
| 2026-05-08 02:35 | 37.12863 | -78.02183 | 12569 ft | 365 kts | 52° |
| 2026-05-08 02:35 | 37.14295 | -77.99518 | 12130 ft | 362 kts | 52° |
| 2026-05-08 02:36 | 37.15699 | -77.96901 | 11677 ft | 359 kts | 52° |
| 2026-05-08 02:36 | 37.17080 | -77.94326 | 11238 ft | 350 kts | 52° |
| 2026-05-08 02:36 | 37.18476 | -77.91717 | 10979 ft | 332 kts | 52° |
| 2026-05-08 02:36 | 37.19740 | -77.89352 | 10858 ft | 319 kts | 52° |
| 2026-05-08 02:37 | 37.20983 | -77.87028 | 10448 ft | 318 kts | 52° |
| 2026-05-08 02:37 | 37.22185 | -77.84784 | 10190 ft | 309 kts | 52° |
| 2026-05-08 02:37 | 37.23383 | -77.82544 | 9793 ft | 305 kts | 52° |
| 2026-05-08 02:37 | 37.24553 | -77.80360 | 9422 ft | 299 kts | 52° |
| 2026-05-08 02:38 | 37.25687 | -77.78234 | 9006 ft | 295 kts | 52° |
| 2026-05-08 02:38 | 37.26857 | -77.76043 | 8579 ft | 291 kts | 51° |
| 2026-05-08 02:38 | 37.27984 | -77.73928 | 8237 ft | 284 kts | 52° |
| 2026-05-08 02:38 | 37.28838 | -77.71699 | 7909 ft | 287 kts | 72° |
| 2026-05-08 02:39 | 37.28925 | -77.69220 | 7581 ft | 290 kts | 97° |
| 2026-05-08 02:39 | 37.28442 | -77.66749 | 7299 ft | 287 kts | 104° |
| 2026-05-08 02:39 | 37.27834 | -77.64323 | 6974 ft | 285 kts | 105° |
| 2026-05-08 02:39 | 37.27214 | -77.61967 | 6677 ft | 281 kts | 105° |
| 2026-05-08 02:40 | 37.26582 | -77.59618 | 6288 ft | 280 kts | 105° |
| 2026-05-08 02:40 | 37.25945 | -77.57291 | 5938 ft | 277 kts | 105° |
| 2026-05-08 02:40 | 37.25325 | -77.55022 | 5586 ft | 275 kts | 105° |
| 2026-05-08 02:40 | 37.24668 | -77.52621 | 5172 ft | 274 kts | 105° |
| 2026-05-08 02:41 | 37.24050 | -77.50359 | 4827 ft | 272 kts | 105° |
| 2026-05-08 02:41 | 37.23425 | -77.48064 | 4629 ft | 263 kts | 105° |
| 2026-05-08 02:41 | 37.22842 | -77.45933 | 4512 ft | 252 kts | 105° |
| 2026-05-08 02:41 | 37.22263 | -77.43836 | 4395 ft | 242 kts | 105° |
| 2026-05-08 02:42 | 37.21707 | -77.41822 | 4209 ft | 236 kts | 105° |
| 2026-05-08 02:42 | 37.21170 | -77.39870 | 3998 ft | 230 kts | 105° |
| 2026-05-08 02:42 | 37.20632 | -77.37936 | 3642 ft | 231 kts | 105° |
| 2026-05-08 02:42 | 37.20101 | -77.36036 | 3312 ft | 231 kts | 105° |
| 2026-05-08 02:43 | 37.19557 | -77.34086 | 3000 ft | 229 kts | 106° |
| 2026-05-08 02:43 | 37.19190 | -77.32156 | 2688 ft | 223 kts | 87° |
| 2026-05-08 02:43 | 37.19581 | -77.30329 | 2446 ft | 209 kts | 53° |
| 2026-05-08 02:43 | 37.20578 | -77.29095 | 2348 ft | 193 kts | 34° |
| 2026-05-08 02:44 | 37.21629 | -77.28118 | 2245 ft | 183 kts | 33° |
| 2026-05-08 02:44 | 37.22633 | -77.27182 | 2047 ft | 179 kts | 34° |
| 2026-05-08 02:44 | 37.23632 | -77.26254 | 2000 ft | 178 kts | 34° |
| 2026-05-08 02:44 | 37.24651 | -77.25317 | 2000 ft | 178 kts | 34° |
| 2026-05-08 02:45 | 37.25607 | -77.24435 | 1996 ft | 164 kts | 34° |
| 2026-05-08 02:45 | 37.26510 | -77.23595 | 2007 ft | 162 kts | 34° |
| 2026-05-08 02:45 | 37.27419 | -77.22746 | 2001 ft | 162 kts | 34° |
| 2026-05-08 02:45 | 37.28330 | -77.21893 | 2000 ft | 162 kts | 33° |
| 2026-05-08 02:46 | 37.29258 | -77.21023 | 2001 ft | 162 kts | 33° |
| 2026-05-08 02:46 | 37.30188 | -77.20160 | 2000 ft | 163 kts | 33° |
| 2026-05-08 02:46 | 37.31113 | -77.19301 | 2002 ft | 163 kts | 34° |
| 2026-05-08 02:46 | 37.32034 | -77.18438 | 1999 ft | 162 kts | 34° |
| 2026-05-08 02:47 | 37.32981 | -77.17687 | 2004 ft | 160 kts | 15° |
| 2026-05-08 02:47 | 37.34048 | -77.17727 | 1993 ft | 154 kts | 333° |
| 2026-05-08 02:47 | 37.34791 | -77.18606 | 2005 ft | 143 kts | 310° |
| 2026-05-08 02:47 | 37.35502 | -77.19438 | 1997 ft | 140 kts | 327° |
| 2026-05-08 02:48 | 37.36324 | -77.20119 | 1998 ft | 142 kts | 327° |
| 2026-05-08 02:48 | 37.37158 | -77.20812 | 1995 ft | 140 kts | 327° |
| 2026-05-08 02:48 | 37.37985 | -77.21474 | 1993 ft | 140 kts | 328° |
| 2026-05-08 02:48 | 37.38808 | -77.22128 | 1996 ft | 139 kts | 328° |
| 2026-05-08 02:49 | 37.39619 | -77.22774 | 2000 ft | 141 kts | 327° |
| 2026-05-08 02:49 | 37.40448 | -77.23432 | 1996 ft | 140 kts | 328° |
| 2026-05-08 02:49 | 37.41268 | -77.24084 | 2014 ft | 134 kts | 328° |
| 2026-05-08 02:49 | 37.42072 | -77.24721 | 2015 ft | 137 kts | 328° |
| 2026-05-08 02:50 | 37.42898 | -77.25378 | 1770 ft | 140 kts | 328° |
| 2026-05-08 02:50 | 37.43722 | -77.26033 | 1575 ft | 139 kts | 328° |
| 2026-05-08 02:50 | 37.44544 | -77.26686 | 1386 ft | 141 kts | 328° |
| 2026-05-08 02:50 | 37.45370 | -77.27344 | 1192 ft | 140 kts | 328° |
| 2026-05-08 02:51 | 37.46207 | -77.28013 | 995 ft | 142 kts | 328° |
| 2026-05-08 02:51 | 37.47059 | -77.28687 | 794 ft | 141 kts | 328° |
| 2026-05-08 02:51 | 37.47914 | -77.29372 | 602 ft | 143 kts | 327° |
| 2026-05-08 02:51 | 37.48778 | -77.30054 | 385 ft | 142 kts | 328° |
| 2026-05-08 02:52 | 37.49623 | -77.30733 | 228 ft | 144 kts | 328° |
| 2026-05-08 02:52 | 37.50448 | -77.31385 | 163 ft | 127 kts | 327° |
| 2026-05-08 02:52 | 37.51033 | -77.31857 | 165 ft | 78 kts | 327° |
| 2026-05-08 02:52 | 37.51309 | -77.32077 | 167 ft | 26 kts | 328° |
| 2026-05-08 02:53 | 37.51420 | -77.32171 | 168 ft | 12 kts | 318° |
| 2026-05-08 02:53 | 37.51448 | -77.32237 | 168 ft | 4 kts | 291° |
| 2026-05-08 02:53 | 37.51465 | -77.32248 | 168 ft | 4 kts | 348° |
| 2026-05-08 02:53 | 37.51521 | -77.32259 | 168 ft | 13 kts | 346° |
| 2026-05-08 02:54 | 37.51608 | -77.32328 | 169 ft | 15 kts | 305° |
| 2026-05-08 02:54 | 37.51638 | -77.32512 | 168 ft | 22 kts | 271° |
| 2026-05-08 02:54 | 37.51631 | -77.32655 | 168 ft | 11 kts | 240° |
| 2026-05-08 02:54 | 37.51556 | -77.32694 | 168 ft | 11 kts | 193° |
| 2026-05-08 02:55 | 37.51473 | -77.32717 | 168 ft | 11 kts | 193° |
| 2026-05-08 02:55 | 37.51298 | -77.32769 | 167 ft | 14 kts | 194° |
| 2026-05-08 02:55 | 37.51197 | -77.32800 | 167 ft | 14 kts | 194° |
| 2026-05-08 02:56 | 37.51097 | -77.32832 | 167 ft | 14 kts | 194° |
| 2026-05-08 02:56 | 37.50997 | -77.32861 | 166 ft | 13 kts | 192° |
| 2026-05-08 02:56 | 37.50920 | -77.32883 | 166 ft | 10 kts | 193° |
| 2026-05-08 02:56 | 37.50847 | -77.32904 | 166 ft | 10 kts | 193° |
| 2026-05-08 02:57 | 37.50780 | -77.32938 | 166 ft | 8 kts | 217° |
| 2026-05-08 02:57 | 37.50748 | -77.32999 | 166 ft | 8 kts | 256° |
| 2026-05-08 02:57 | 37.50734 | -77.33064 | 166 ft | 7 kts | 253° |
| 2026-05-08 02:57 | 37.50728 | -77.33093 | 166 ft | 1 kts | 256° |
| 2026-05-08 02:58 | 37.50728 | -77.33096 | 166 ft | 0 kts | 256° |
| 2026-05-08 02:58 | 37.50727 | -77.33098 | 166 ft | 0 kts | 256° |